Decoded Metar for PATE ( in _UNIDENTIFIED) (IATA:) | Meteo·Mobile Aviation Weather
aviador You're here:

PATE Decoded Metar

in _UNIDENTIFIED
Report Time2018-09-22 13:56:00
UTC Time2018-09-22 14:43:33
Flight Rules vfr VFR
Wind080° at 14 kt
W.Decomp.*RWY 07: 14.0 kt HW 1 kt LCW
W.Rank080° ranks 6
Current wind is above 080° avg. (9.6)
Visibility9999 m
Phenomena:N/A
Clouds:N/A
Expected CloudBase > 800 ft AGL from Temp-Dew spread
CeilingNone
Temp03°C (ISA -11)
Dew Point01°C (87% RH)
AAT-3.9°C
QNH998 hPa
Density Alt-486 ft
Elevation295 ft
Report Wrong Elevation
Raw Report
PATE 221356Z AUTO 08014KT 10SM CLR 03/01 A2948 RMK AO2 SLP987
T00330011=

Extra information for PATE:More info

Metar Taf Metar & Taf Last 4 Metars F.Rules Stats Wind Profile Meteogram Temp Stats Metar ALERT Operation Metar Decoded Social comments